createdAt,value
2023-10-05T00:02:12.692Z,5.40
2023-10-05T00:04:44.335Z,5.72
2023-10-05T00:07:13.088Z,5.15
2023-10-05T00:09:44.665Z,5.68
2023-10-05T00:12:19.477Z,5.43
2023-10-05T00:14:49.891Z,4.97
2023-10-05T00:17:26.893Z,5.07
2023-10-05T00:19:53.724Z,5.13
2023-10-05T00:22:21.434Z,4.57
2023-10-05T00:24:49.879Z,5.50
2023-10-05T00:27:16.775Z,5.15
2023-10-05T00:29:50.135Z,4.90
2023-10-05T00:32:17.046Z,5.13
2023-10-05T00:34:45.876Z,4.82
2023-10-05T00:37:13.171Z,5.70
2023-10-05T00:39:41.044Z,5.22
2023-10-05T00:42:07.686Z,4.75
2023-10-05T00:44:36.277Z,5.45
2023-10-05T00:47:07.561Z,6.55
2023-10-05T00:49:46.788Z,6.57
2023-10-05T00:52:16.574Z,6.05
2023-10-05T00:54:52.396Z,5.18
2023-10-05T00:57:24.432Z,5.95
2023-10-05T00:59:57.648Z,5.38
2023-10-05T01:02:24.936Z,5.25
2023-10-05T01:04:57.956Z,5.50
2023-10-05T01:07:25.951Z,6.05
2023-10-05T01:10:00.749Z,5.50
2023-10-05T01:12:30.978Z,4.75
2023-10-05T01:15:00.510Z,5.85
2023-10-05T01:17:29.053Z,4.97
2023-10-05T01:20:00.238Z,6.10
2023-10-05T01:22:34.428Z,4.65
2023-10-05T01:25:06.072Z,5.38
2023-10-05T01:27:33.513Z,5.35
2023-10-05T01:30:00.565Z,5.72
2023-10-05T01:32:27.790Z,5.05
2023-10-05T01:34:54.954Z,5.63
2023-10-05T01:37:26.917Z,6.25
2023-10-05T01:39:53.961Z,5.88
2023-10-05T01:42:20.926Z,5.50
2023-10-05T01:44:50.685Z,5.32
2023-10-05T01:47:18.154Z,5.10
2023-10-05T01:49:46.229Z,5.70
2023-10-05T01:52:19.295Z,5.28
2023-10-05T01:54:46.099Z,6.20
2023-10-05T01:57:17.189Z,5.03
2023-10-05T01:59:44.870Z,5.65
2023-10-05T02:02:12.004Z,5.63
2023-10-05T02:04:44.459Z,5.40
2023-10-05T02:07:13.033Z,5.35
2023-10-05T02:09:39.870Z,5.15
2023-10-05T02:12:08.256Z,5.78
2023-10-05T02:14:39.202Z,5.60
2023-10-05T02:17:07.440Z,5.07
2023-10-05T02:19:38.179Z,5.90
2023-10-05T02:22:12.051Z,5.60
2023-10-05T02:24:42.187Z,5.40
2023-10-05T02:27:15.821Z,4.82
2023-10-05T02:29:46.832Z,5.57
2023-10-05T02:32:16.888Z,4.97
2023-10-05T02:34:46.701Z,5.20
2023-10-05T02:37:14.047Z,5.32
2023-10-05T02:39:41.936Z,5.35
2023-10-05T02:42:16.553Z,5.28
2023-10-05T02:44:44.359Z,5.60
2023-10-05T02:47:15.106Z,5.45
2023-10-05T02:49:45.420Z,5.90
2023-10-05T02:52:14.626Z,5.10
2023-10-05T02:54:41.644Z,5.68
2023-10-05T02:57:15.869Z,5.68
2023-10-05T03:02:09.449Z,5.30
2023-10-05T03:04:46.578Z,5.75
2023-10-05T03:07:17.777Z,5.00
2023-10-05T03:09:45.347Z,5.50
2023-10-05T03:12:12.494Z,5.30
2023-10-05T03:14:46.049Z,5.68
2023-10-05T03:17:20.297Z,5.25
2023-10-05T03:19:47.163Z,5.20
2023-10-05T03:22:14.080Z,5.38
2023-10-05T03:24:46.034Z,5.55
2023-10-05T03:27:13.238Z,5.40
2023-10-05T03:29:40.034Z,4.88
2023-10-05T03:32:09.370Z,5.50
2023-10-05T03:34:36.945Z,5.35
2023-10-05T03:37:14.250Z,5.93
2023-10-05T03:39:59.872Z,5.25
2023-10-05T03:42:26.708Z,5.75
2023-10-05T03:45:10.190Z,5.85
2023-10-05T03:47:39.299Z,5.25
2023-10-05T03:50:07.550Z,5.20
2023-10-05T03:52:34.385Z,5.43
2023-10-05T03:55:10.946Z,5.15
2023-10-05T03:57:44.243Z,6.22
2023-10-05T04:00:23.283Z,6.90
2023-10-05T04:02:58.226Z,6.43
2023-10-05T04:05:26.128Z,6.88
2023-10-05T04:07:54.144Z,6.22
2023-10-05T04:10:46.852Z,6.97
2023-10-05T04:13:16.197Z,5.97
2023-10-05T04:15:42.986Z,5.15
2023-10-05T04:18:16.403Z,5.40
2023-10-05T04:20:44.720Z,5.20
2023-10-05T04:23:16.511Z,5.13
2023-10-05T04:25:45.778Z,6.75
2023-10-05T04:28:13.052Z,5.18
2023-10-05T04:30:39.875Z,4.80
2023-10-05T04:33:06.862Z,5.40
2023-10-05T04:35:43.374Z,5.53
2023-10-05T04:38:12.171Z,5.60
2023-10-05T04:40:40.127Z,5.50
2023-10-05T04:43:12.491Z,5.88
2023-10-05T04:45:44.029Z,6.20
2023-10-05T04:48:13.798Z,5.57
2023-10-05T04:50:43.854Z,5.50
2023-10-05T04:53:11.261Z,7.65
2023-10-05T04:55:44.398Z,27.80
2023-10-05T04:58:24.961Z,31.38
2023-10-05T05:01:04.307Z,7.10
2023-10-05T05:03:49.418Z,6.70
2023-10-05T05:06:17.142Z,6.78
2023-10-05T05:08:44.842Z,7.05
2023-10-05T05:11:19.910Z,5.97
2023-10-05T05:13:48.002Z,6.32
2023-10-05T05:16:16.462Z,6.05
2023-10-05T05:18:43.910Z,5.63
2023-10-05T05:21:13.914Z,5.53
2023-10-05T05:23:48.595Z,6.32
2023-10-05T05:26:15.706Z,5.97
2023-10-05T05:28:44.919Z,5.95
2023-10-05T05:31:18.347Z,5.93
2023-10-05T05:33:45.656Z,6.75
2023-10-05T05:36:13.600Z,5.80
2023-10-05T05:38:49.297Z,5.85
2023-10-05T05:41:28.388Z,5.35
2023-10-05T05:43:55.160Z,7.10
2023-10-05T05:46:22.038Z,6.40
2023-10-05T05:48:53.866Z,6.22
2023-10-05T05:51:24.732Z,7.05
2023-10-05T05:53:53.251Z,6.70
2023-10-05T05:56:29.982Z,6.13
2023-10-05T05:58:57.110Z,6.63
2023-10-05T06:01:23.802Z,6.03
2023-10-05T06:03:51.026Z,5.70
2023-10-05T06:06:17.972Z,6.82
2023-10-05T06:08:45.513Z,7.03
2023-10-05T06:11:13.841Z,6.28
2023-10-05T06:13:41.798Z,6.47
2023-10-05T06:16:11.784Z,6.25
2023-10-05T06:18:38.853Z,6.07
2023-10-05T06:21:08.467Z,8.75
2023-10-05T06:23:35.215Z,7.10
2023-10-05T06:26:02.198Z,7.00
2023-10-05T06:28:29.122Z,8.35
2023-10-05T06:30:58.103Z,7.97
2023-10-05T06:33:26.935Z,10.98
2023-10-05T06:35:53.818Z,9.48
2023-10-05T06:38:20.877Z,8.27
2023-10-05T06:40:47.782Z,7.50
2023-10-05T06:43:16.411Z,7.43
2023-10-05T06:45:46.494Z,7.70
2023-10-05T06:48:15.902Z,8.15
2023-10-05T06:50:44.494Z,8.75
2023-10-05T06:53:14.141Z,7.75
2023-10-05T06:55:41.010Z,7.30
2023-10-05T06:58:08.730Z,6.80
2023-10-05T07:00:35.534Z,14.13
2023-10-05T07:03:08.253Z,9.43
2023-10-05T07:05:35.165Z,7.45
2023-10-05T07:08:02.061Z,7.47
2023-10-05T07:10:29.274Z,7.10
2023-10-05T07:12:56.062Z,6.72
2023-10-05T07:15:22.854Z,6.70
2023-10-05T07:17:52.450Z,6.40
2023-10-05T07:20:20.055Z,6.45
2023-10-05T07:22:47.567Z,7.15
2023-10-05T07:25:15.771Z,6.28
2023-10-05T07:27:46.569Z,6.57
2023-10-05T07:30:13.963Z,6.25
2023-10-05T07:32:41.759Z,5.65
2023-10-05T07:35:09.207Z,5.13
2023-10-05T07:37:37.253Z,5.65
2023-10-05T07:40:15.018Z,5.25
2023-10-05T07:42:42.308Z,5.32
2023-10-05T07:45:09.450Z,5.03
2023-10-05T07:47:45.893Z,5.45
2023-10-05T07:50:12.904Z,5.55
2023-10-05T07:52:41.195Z,5.60
2023-10-05T07:55:09.398Z,5.70
2023-10-05T07:57:36.154Z,5.70
2023-10-05T08:00:04.669Z,5.78
2023-10-05T08:02:31.701Z,5.72
2023-10-05T08:04:58.561Z,5.65
2023-10-05T08:07:25.338Z,5.30
2023-10-05T08:09:52.093Z,5.25
2023-10-05T08:12:19.356Z,6.25
2023-10-05T08:14:46.201Z,5.35
2023-10-05T08:17:13.689Z,5.55
2023-10-05T08:19:40.545Z,5.97
2023-10-05T08:22:07.571Z,5.65
2023-10-05T08:24:35.440Z,6.07
2023-10-05T08:27:03.363Z,5.70
2023-10-05T08:29:30.994Z,5.90
2023-10-05T08:31:58.388Z,6.05
2023-10-05T08:34:26.448Z,6.35
2023-10-05T08:36:56.420Z,5.47
2023-10-05T08:39:26.884Z,5.70
2023-10-05T08:42:04.117Z,5.35
2023-10-05T08:44:32.156Z,6.05
2023-10-05T08:46:59.464Z,4.90
2023-10-05T08:49:28.741Z,5.63
2023-10-05T08:52:04.359Z,4.80
2023-10-05T08:54:34.540Z,5.55
2023-10-05T08:57:10.393Z,5.40
2023-10-05T08:59:47.138Z,5.18
2023-10-05T09:02:20.059Z,5.07
2023-10-05T09:05:01.976Z,5.13
2023-10-05T09:07:31.160Z,4.78
2023-10-05T09:09:58.309Z,5.75
2023-10-05T09:12:44.134Z,5.28
2023-10-05T09:15:22.757Z,4.72
2023-10-05T09:18:07.512Z,5.28
2023-10-05T09:20:37.651Z,6.00
2023-10-05T09:23:09.409Z,5.68
2023-10-05T09:25:41.908Z,5.35
2023-10-05T09:28:15.765Z,5.07
2023-10-05T09:30:57.053Z,5.15
2023-10-05T09:33:26.918Z,5.13
2023-10-05T09:36:06.699Z,5.55
2023-10-05T09:38:42.385Z,5.18
2023-10-05T09:41:09.520Z,5.32
2023-10-05T09:43:40.091Z,5.47
2023-10-05T09:46:11.590Z,4.80
2023-10-05T09:48:39.900Z,4.72
2023-10-05T09:51:15.315Z,5.10
2023-10-05T09:53:45.205Z,4.63
2023-10-05T09:56:19.192Z,5.32
2023-10-05T09:58:51.700Z,5.20
2023-10-05T10:01:24.216Z,5.25
2023-10-05T10:03:53.349Z,4.90
2023-10-05T10:06:21.226Z,5.10
2023-10-05T10:08:52.508Z,5.07
2023-10-05T10:11:19.870Z,4.80
2023-10-05T10:14:02.428Z,4.13
2023-10-05T10:16:30.147Z,4.38
2023-10-05T10:19:07.662Z,4.72
2023-10-05T10:21:37.446Z,4.78
2023-10-05T10:24:08.265Z,4.85
2023-10-05T10:26:45.613Z,4.28
2023-10-05T10:29:17.376Z,3.83
2023-10-05T10:31:45.427Z,4.07
2023-10-05T10:34:30.555Z,3.97
2023-10-05T10:36:58.289Z,4.03
2023-10-05T10:39:32.971Z,3.70
2023-10-05T10:42:06.116Z,3.15
2023-10-05T10:44:56.360Z,2.78
2023-10-05T10:47:28.456Z,3.08
2023-10-05T10:50:24.410Z,3.10
2023-10-05T10:52:51.739Z,2.90
2023-10-05T10:55:21.286Z,4.20
2023-10-05T10:57:48.638Z,4.25
2023-10-05T11:00:36.647Z,4.07
2023-10-05T11:03:13.235Z,3.78
2023-10-05T11:05:45.635Z,3.70
2023-10-05T11:08:21.729Z,3.67
2023-10-05T11:11:11.044Z,3.47
2023-10-05T11:14:01.531Z,3.63
2023-10-05T11:16:36.947Z,3.65
2023-10-05T11:21:48.133Z,3.72
2023-10-05T11:26:55.982Z,3.60
2023-10-05T11:29:29.567Z,3.40
2023-10-05T11:32:07.032Z,3.60
2023-10-05T11:35:18.046Z,3.72
2023-10-05T11:37:46.097Z,3.90
2023-10-05T11:40:25.158Z,3.70
2023-10-05T11:42:52.271Z,3.65
2023-10-05T11:45:19.796Z,3.35
2023-10-05T11:47:54.528Z,3.25
2023-10-05T11:50:34.131Z,3.42
2023-10-05T11:53:07.793Z,3.95
2023-10-05T11:55:36.945Z,4.95
2023-10-05T11:58:04.125Z,4.28
2023-10-05T12:00:32.814Z,4.38
2023-10-05T12:02:59.778Z,3.40
2023-10-05T12:05:30.111Z,3.95
2023-10-05T12:08:00.871Z,3.63
2023-10-05T12:10:27.713Z,3.40
2023-10-05T12:12:54.642Z,4.90
2023-10-05T12:15:24.048Z,3.17
2023-10-05T12:17:51.088Z,3.50
2023-10-05T12:20:19.499Z,4.10
2023-10-05T12:22:46.630Z,4.32
2023-10-05T12:25:16.476Z,3.63
2023-10-05T12:27:43.502Z,2.97
2023-10-05T12:30:13.133Z,3.03
2023-10-05T12:32:40.418Z,3.13
2023-10-05T12:35:18.180Z,3.60
2023-10-05T12:37:46.056Z,3.72
2023-10-05T12:40:27.646Z,3.50
2023-10-05T12:45:25.429Z,3.28
2023-10-05T12:47:58.738Z,3.00
2023-10-05T12:50:31.682Z,3.60
2023-10-05T12:53:01.683Z,3.28
2023-10-05T12:55:30.525Z,3.00
2023-10-05T12:57:58.308Z,3.35
2023-10-05T13:00:45.820Z,3.58
2023-10-05T13:03:13.935Z,3.17
2023-10-05T13:05:44.962Z,3.53
2023-10-05T13:08:13.085Z,3.45
2023-10-05T13:10:40.238Z,3.15
2023-10-05T13:13:19.712Z,3.78
2023-10-05T13:15:46.827Z,3.88
2023-10-05T13:18:19.842Z,3.67
2023-10-05T13:20:55.343Z,3.60
2023-10-05T13:23:23.438Z,3.60
2023-10-05T13:25:51.803Z,3.92
2023-10-05T13:28:27.979Z,3.60
2023-10-05T13:30:58.556Z,3.35
2023-10-05T13:33:33.340Z,3.60
2023-10-05T13:36:00.234Z,3.45
2023-10-05T13:38:30.275Z,3.53
2023-10-05T13:41:15.570Z,3.50
2023-10-05T13:43:42.763Z,3.47
2023-10-05T13:46:20.396Z,4.00
2023-10-05T13:48:57.393Z,4.00
2023-10-05T13:51:24.802Z,3.35
2023-10-05T13:53:55.929Z,3.53
2023-10-05T13:56:28.694Z,3.33
2023-10-05T13:59:03.810Z,3.75
2023-10-05T14:01:39.848Z,3.45
2023-10-05T14:04:09.073Z,3.67
2023-10-05T14:06:37.754Z,3.60
2023-10-05T14:09:08.320Z,3.67
2023-10-05T14:11:39.520Z,4.10
2023-10-05T14:14:07.436Z,3.45
2023-10-05T14:16:50.608Z,3.55
2023-10-05T14:19:23.976Z,3.83
2023-10-05T14:21:54.059Z,3.53
2023-10-05T14:24:22.315Z,4.50
2023-10-05T14:26:50.265Z,3.80
2023-10-05T14:29:18.821Z,3.80
2023-10-05T14:31:49.309Z,3.95
2023-10-05T14:34:18.757Z,3.80
2023-10-05T14:36:46.343Z,3.83
2023-10-05T14:39:22.710Z,3.72
2023-10-05T14:41:52.886Z,3.50
2023-10-05T14:44:19.580Z,3.67
2023-10-05T14:46:51.022Z,3.97
2023-10-05T14:49:23.069Z,4.00
2023-10-05T14:51:51.110Z,3.60
2023-10-05T14:54:18.856Z,4.05
2023-10-05T14:56:45.716Z,3.63
2023-10-05T14:59:13.748Z,3.78
2023-10-05T15:01:42.099Z,4.50
2023-10-05T15:04:09.461Z,3.78
2023-10-05T15:06:36.390Z,3.70
2023-10-05T15:09:03.911Z,3.92
2023-10-05T15:11:31.129Z,3.60
2023-10-05T15:13:59.490Z,3.72
2023-10-05T15:16:27.848Z,3.75
2023-10-05T15:18:55.423Z,3.92
2023-10-05T15:21:22.092Z,4.10
2023-10-05T15:23:49.015Z,3.80
2023-10-05T15:26:18.221Z,4.30
2023-10-05T15:28:45.320Z,3.78
2023-10-05T15:31:12.408Z,4.05
2023-10-05T15:33:39.392Z,3.65
2023-10-05T15:36:06.522Z,3.67
2023-10-05T15:38:35.313Z,3.60
2023-10-05T15:41:05.372Z,3.67
2023-10-05T15:43:32.754Z,4.00
2023-10-05T15:46:01.536Z,3.80
2023-10-05T15:48:28.896Z,3.55
2023-10-05T15:50:56.801Z,3.50
2023-10-05T15:53:23.503Z,4.25
2023-10-05T15:55:50.374Z,3.80
2023-10-05T15:58:17.487Z,4.38
2023-10-05T16:00:44.394Z,4.15
2023-10-05T16:03:12.366Z,4.07
2023-10-05T16:05:40.419Z,4.70
2023-10-05T16:08:08.160Z,4.25
2023-10-05T16:10:36.178Z,4.13
2023-10-05T16:13:08.920Z,4.30
2023-10-05T16:15:36.302Z,4.47
2023-10-05T16:18:04.099Z,4.95
2023-10-05T16:20:32.453Z,5.00
2023-10-05T16:23:07.052Z,5.90
2023-10-05T16:25:38.025Z,5.55
2023-10-05T16:28:07.329Z,5.50
2023-10-05T16:30:34.268Z,4.70
2023-10-05T16:33:02.608Z,5.45
2023-10-05T16:35:29.492Z,5.05
2023-10-05T16:37:57.502Z,5.30
2023-10-05T16:40:29.970Z,5.30
2023-10-05T16:42:58.843Z,5.63
2023-10-05T16:45:25.888Z,14.57
2023-10-05T16:47:53.565Z,7.20
2023-10-05T16:50:21.547Z,5.90
2023-10-05T16:52:49.359Z,6.15
2023-10-05T16:55:17.025Z,5.45
2023-10-05T16:57:46.806Z,5.38
2023-10-05T17:00:17.951Z,6.65
2023-10-05T17:02:45.673Z,5.00
2023-10-05T17:05:17.136Z,4.63
2023-10-05T17:07:48.157Z,4.05
2023-10-05T17:10:15.338Z,5.45
2023-10-05T17:12:42.435Z,3.92
2023-10-05T17:15:09.448Z,4.47
2023-10-05T17:17:36.471Z,5.55
2023-10-05T17:20:03.800Z,5.28
2023-10-05T17:22:30.539Z,4.80
2023-10-05T17:24:57.706Z,4.68
2023-10-05T17:27:25.190Z,4.78
2023-10-05T17:29:52.471Z,5.25
2023-10-05T17:32:19.594Z,4.68
2023-10-05T17:34:53.707Z,4.88
2023-10-05T17:37:20.989Z,4.20
2023-10-05T17:39:47.920Z,4.80
2023-10-05T17:42:14.625Z,4.97
2023-10-05T17:44:41.672Z,4.60
2023-10-05T17:47:09.377Z,4.88
2023-10-05T17:49:40.321Z,4.70
2023-10-05T17:52:08.731Z,4.55
2023-10-05T17:54:35.629Z,4.38
2023-10-05T17:57:03.564Z,4.68
2023-10-05T17:59:30.383Z,4.18
2023-10-05T18:01:57.373Z,4.85
2023-10-05T18:04:25.897Z,4.43
2023-10-05T18:06:52.724Z,4.43
2023-10-05T18:09:19.555Z,5.80
2023-10-05T18:11:47.150Z,5.22
2023-10-05T18:14:14.051Z,4.45
2023-10-05T18:16:42.953Z,4.45
2023-10-05T18:19:12.460Z,4.82
2023-10-05T18:21:39.347Z,5.25
2023-10-05T18:24:06.725Z,5.10
2023-10-05T18:26:33.596Z,4.90
2023-10-05T18:29:03.316Z,6.53
2023-10-05T18:31:31.583Z,5.95
2023-10-05T18:33:58.639Z,5.60
2023-10-05T18:36:25.809Z,5.70
2023-10-05T18:38:52.796Z,5.70
2023-10-05T18:41:21.204Z,6.80
2023-10-05T18:43:51.558Z,6.57
2023-10-05T18:46:19.384Z,6.35
2023-10-05T18:48:46.168Z,6.38
2023-10-05T18:51:12.853Z,6.20
2023-10-05T18:53:40.833Z,6.57
2023-10-05T18:56:08.333Z,6.22
2023-10-05T18:58:36.640Z,6.22
2023-10-05T19:01:03.710Z,6.60
2023-10-05T19:03:30.672Z,6.75
2023-10-05T19:05:57.525Z,6.10
2023-10-05T19:08:24.336Z,6.47
2023-10-05T19:10:51.172Z,6.43
2023-10-05T19:13:17.837Z,6.50
2023-10-05T19:15:44.567Z,6.80
2023-10-05T19:18:11.357Z,6.80
2023-10-05T19:20:38.118Z,6.47
2023-10-05T19:23:07.607Z,6.30
2023-10-05T19:25:34.321Z,6.75
2023-10-05T19:28:01.208Z,6.00
2023-10-05T19:30:27.938Z,5.85
2023-10-05T19:32:54.784Z,5.15
2023-10-05T19:35:22.390Z,6.80
2023-10-05T19:37:49.168Z,6.60
2023-10-05T19:40:15.996Z,6.53
2023-10-05T19:42:42.966Z,7.50
2023-10-05T19:45:11.865Z,7.25
2023-10-05T19:47:38.664Z,6.18
2023-10-05T19:50:07.122Z,6.60
2023-10-05T19:52:34.027Z,6.60
2023-10-05T19:55:00.915Z,6.57
2023-10-05T19:57:27.573Z,6.45
2023-10-05T19:59:55.658Z,6.53
2023-10-05T20:02:22.456Z,6.68
2023-10-05T20:04:51.946Z,6.22
2023-10-05T20:07:19.322Z,6.85
2023-10-05T20:09:46.032Z,6.60
2023-10-05T20:12:12.960Z,6.25
2023-10-05T20:14:39.704Z,6.15
2023-10-05T20:17:06.987Z,6.28
2023-10-05T20:19:34.332Z,6.78
2023-10-05T20:22:01.753Z,6.47
2023-10-05T20:24:28.618Z,6.43
2023-10-05T20:26:55.493Z,7.40
2023-10-05T20:29:22.699Z,6.90
2023-10-05T20:31:49.450Z,6.72
2023-10-05T20:34:22.942Z,6.40
2023-10-05T20:36:53.718Z,6.53
2023-10-05T20:39:23.551Z,6.85
2023-10-05T20:41:55.318Z,6.82
2023-10-05T20:44:22.301Z,7.13
2023-10-05T20:46:49.568Z,7.45
2023-10-05T20:49:16.280Z,6.50
2023-10-05T20:51:43.016Z,6.63
2023-10-05T20:54:10.630Z,6.35
2023-10-05T20:56:37.410Z,6.63
2023-10-05T20:59:04.938Z,5.75
2023-10-05T21:01:31.639Z,5.93
2023-10-05T21:03:58.409Z,5.72
2023-10-05T21:06:26.131Z,5.82
2023-10-05T21:08:53.283Z,5.78
2023-10-05T21:11:20.046Z,5.75
2023-10-05T21:13:47.005Z,5.97
2023-10-05T21:16:13.778Z,5.93
2023-10-05T21:18:40.638Z,6.38
2023-10-05T21:21:07.283Z,6.03
2023-10-05T21:23:33.947Z,7.00
2023-10-05T21:26:00.666Z,6.32
2023-10-05T21:28:27.365Z,6.40
2023-10-05T21:30:55.303Z,6.25
2023-10-05T21:33:22.145Z,5.68
2023-10-05T21:35:48.862Z,6.10
2023-10-05T21:38:15.589Z,6.72
2023-10-05T21:40:42.388Z,6.80
2023-10-05T21:43:09.095Z,6.82
2023-10-05T21:45:35.919Z,6.55
2023-10-05T21:48:02.755Z,6.68
2023-10-05T21:50:29.650Z,6.65
2023-10-05T21:52:56.543Z,5.97
2023-10-05T21:55:23.390Z,6.28
2023-10-05T21:57:50.196Z,6.63
2023-10-05T22:00:49.055Z,6.75
2023-10-05T22:03:15.727Z,6.82
2023-10-05T22:05:42.681Z,6.30
2023-10-05T22:08:09.747Z,6.63
2023-10-05T22:10:37.325Z,6.57
2023-10-05T22:13:04.739Z,7.13
2023-10-05T22:15:32.400Z,6.60
2023-10-05T22:18:00.624Z,6.40
2023-10-05T22:20:27.976Z,6.53
2023-10-05T22:22:57.516Z,7.00
2023-10-05T22:25:24.381Z,6.43
2023-10-05T22:27:51.555Z,6.53
2023-10-05T22:30:18.822Z,6.82
2023-10-05T22:32:46.341Z,6.22
2023-10-05T22:35:13.208Z,5.75
2023-10-05T22:37:40.034Z,6.22
2023-10-05T22:40:07.322Z,5.78
2023-10-05T22:42:35.593Z,6.40
2023-10-05T22:45:02.252Z,6.80
2023-10-05T22:47:29.107Z,7.60
2023-10-05T22:49:57.516Z,6.93
2023-10-05T22:52:25.879Z,7.32
2023-10-05T22:54:56.442Z,6.18
2023-10-05T22:57:24.294Z,6.57
2023-10-05T22:59:51.717Z,6.10
2023-10-05T23:02:18.654Z,5.28
2023-10-05T23:04:45.403Z,6.20
2023-10-05T23:07:12.577Z,5.60
2023-10-05T23:09:40.196Z,6.18
2023-10-05T23:12:12.245Z,5.43
2023-10-05T23:14:39.682Z,6.40
2023-10-05T23:17:09.304Z,6.65
2023-10-05T23:19:36.851Z,6.43
2023-10-05T23:22:04.307Z,6.38
2023-10-05T23:24:32.033Z,6.28
2023-10-05T23:27:00.558Z,6.28
2023-10-05T23:29:30.087Z,6.45
2023-10-05T23:31:58.237Z,6.88
2023-10-05T23:34:36.850Z,6.25
2023-10-05T23:37:09.569Z,6.57
2023-10-05T23:39:36.613Z,6.75
2023-10-05T23:42:12.391Z,6.45
2023-10-05T23:44:42.876Z,6.63
2023-10-05T23:47:24.110Z,6.38
2023-10-05T23:49:55.009Z,6.03
2023-10-05T23:52:22.521Z,6.20
2023-10-05T23:54:49.284Z,5.72
2023-10-05T23:57:21.299Z,5.95
2023-10-05T23:59:48.743Z,5.82
